sensor_id;sensor_type;location;lat;lon;timestamp;P1;durP1;ratioP1;P2;durP2;ratioP2
76801;SDS011;66403;50.832;10.950;2023-04-28T00:04:35;15.82;;;7.50;;
76801;SDS011;66403;50.832;10.950;2023-04-28T00:09:35;9.02;;;6.07;;
76801;SDS011;66403;50.832;10.950;2023-04-28T00:14:36;11.00;;;6.13;;
76801;SDS011;66403;50.832;10.950;2023-04-28T00:19:36;8.55;;;5.07;;
76801;SDS011;66403;50.832;10.950;2023-04-28T00:24:37;10.77;;;5.78;;
76801;SDS011;66403;50.832;10.950;2023-04-28T00:29:38;9.43;;;5.90;;
76801;SDS011;66403;50.832;10.950;2023-04-28T00:34:38;10.52;;;6.07;;
76801;SDS011;66403;50.832;10.950;2023-04-28T00:39:39;10.02;;;6.97;;
76801;SDS011;66403;50.832;10.950;2023-04-28T00:44:40;9.80;;;4.75;;
76801;SDS011;66403;50.832;10.950;2023-04-28T00:49:41;8.57;;;5.10;;
76801;SDS011;66403;50.832;10.950;2023-04-28T00:54:41;7.85;;;4.97;;
76801;SDS011;66403;50.832;10.950;2023-04-28T00:59:42;12.45;;;5.63;;
76801;SDS011;66403;50.832;10.950;2023-04-28T01:04:43;7.47;;;5.43;;
76801;SDS011;66403;50.832;10.950;2023-04-28T01:09:44;8.85;;;5.15;;
76801;SDS011;66403;50.832;10.950;2023-04-28T01:14:47;7.95;;;4.53;;
76801;SDS011;66403;50.832;10.950;2023-04-28T01:19:48;9.15;;;5.95;;
76801;SDS011;66403;50.832;10.950;2023-04-28T01:24:49;9.00;;;5.63;;
76801;SDS011;66403;50.832;10.950;2023-04-28T01:29:50;6.45;;;4.57;;
76801;SDS011;66403;50.832;10.950;2023-04-28T01:34:50;7.65;;;4.82;;
76801;SDS011;66403;50.832;10.950;2023-04-28T01:39:50;6.30;;;4.60;;
76801;SDS011;66403;50.832;10.950;2023-04-28T01:44:52;9.27;;;5.10;;
76801;SDS011;66403;50.832;10.950;2023-04-28T01:49:52;8.82;;;5.80;;
76801;SDS011;66403;50.832;10.950;2023-04-28T01:54:53;9.82;;;5.65;;
76801;SDS011;66403;50.832;10.950;2023-04-28T01:59:55;12.60;;;6.22;;
76801;SDS011;66403;50.832;10.950;2023-04-28T02:04:56;9.20;;;5.18;;
76801;SDS011;66403;50.832;10.950;2023-04-28T02:09:57;6.65;;;4.22;;
76801;SDS011;66403;50.832;10.950;2023-04-28T02:14:58;9.07;;;5.20;;
76801;SDS011;66403;50.832;10.950;2023-04-28T02:20:00;9.43;;;4.75;;
76801;SDS011;66403;50.832;10.950;2023-04-28T02:25:00;7.55;;;4.30;;
76801;SDS011;66403;50.832;10.950;2023-04-28T02:30:05;8.10;;;5.50;;
76801;SDS011;66403;50.832;10.950;2023-04-28T02:35:06;8.77;;;5.30;;
76801;SDS011;66403;50.832;10.950;2023-04-28T02:40:07;10.95;;;5.45;;
76801;SDS011;66403;50.832;10.950;2023-04-28T02:45:07;8.13;;;5.18;;
76801;SDS011;66403;50.832;10.950;2023-04-28T02:50:08;7.22;;;5.15;;
76801;SDS011;66403;50.832;10.950;2023-04-28T02:55:09;5.82;;;4.53;;
76801;SDS011;66403;50.832;10.950;2023-04-28T03:00:09;9.30;;;5.10;;
76801;SDS011;66403;50.832;10.950;2023-04-28T03:05:17;10.32;;;4.97;;
76801;SDS011;66403;50.832;10.950;2023-04-28T03:10:18;6.63;;;4.68;;
76801;SDS011;66403;50.832;10.950;2023-04-28T03:15:18;5.80;;;3.95;;
76801;SDS011;66403;50.832;10.950;2023-04-28T03:20:19;8.20;;;3.83;;
76801;SDS011;66403;50.832;10.950;2023-04-28T03:25:20;10.43;;;4.30;;
76801;SDS011;66403;50.832;10.950;2023-04-28T03:30:23;10.30;;;4.40;;
76801;SDS011;66403;50.832;10.950;2023-04-28T03:35:23;7.63;;;4.40;;
76801;SDS011;66403;50.832;10.950;2023-04-28T03:40:24;5.60;;;4.82;;
76801;SDS011;66403;50.832;10.950;2023-04-28T03:46:00;7.35;;;4.38;;
76801;SDS011;66403;50.832;10.950;2023-04-28T03:51:00;8.32;;;4.65;;
76801;SDS011;66403;50.832;10.950;2023-04-28T03:56:01;6.78;;;4.20;;
76801;SDS011;66403;50.832;10.950;2023-04-28T04:01:01;5.95;;;4.10;;
76801;SDS011;66403;50.832;10.950;2023-04-28T04:06:02;7.40;;;4.70;;
76801;SDS011;66403;50.832;10.950;2023-04-28T04:11:03;6.65;;;4.45;;
76801;SDS011;66403;50.832;10.950;2023-04-28T04:16:03;7.78;;;4.72;;
76801;SDS011;66403;50.832;10.950;2023-04-28T04:21:04;7.57;;;5.43;;
76801;SDS011;66403;50.832;10.950;2023-04-28T04:26:05;9.32;;;5.35;;
76801;SDS011;66403;50.832;10.950;2023-04-28T04:31:06;8.43;;;4.18;;
76801;SDS011;66403;50.832;10.950;2023-04-28T04:36:07;7.78;;;4.85;;
76801;SDS011;66403;50.832;10.950;2023-04-28T04:41:08;5.65;;;4.43;;
76801;SDS011;66403;50.832;10.950;2023-04-28T04:46:08;8.50;;;4.22;;
76801;SDS011;66403;50.832;10.950;2023-04-28T04:51:09;8.82;;;5.38;;
76801;SDS011;66403;50.832;10.950;2023-04-28T04:56:10;6.68;;;4.63;;
76801;SDS011;66403;50.832;10.950;2023-04-28T05:01:11;6.07;;;3.97;;
76801;SDS011;66403;50.832;10.950;2023-04-28T05:06:11;12.32;;;7.00;;
76801;SDS011;66403;50.832;10.950;2023-04-28T05:11:21;7.88;;;4.65;;
76801;SDS011;66403;50.832;10.950;2023-04-28T05:16:21;10.35;;;6.45;;
76801;SDS011;66403;50.832;10.950;2023-04-28T05:21:22;7.57;;;4.93;;
76801;SDS011;66403;50.832;10.950;2023-04-28T05:26:22;8.23;;;5.63;;
76801;SDS011;66403;50.832;10.950;2023-04-28T05:31:27;11.73;;;5.47;;
76801;SDS011;66403;50.832;10.950;2023-04-28T05:36:28;7.03;;;5.15;;
76801;SDS011;66403;50.832;10.950;2023-04-28T05:41:28;7.68;;;5.78;;
76801;SDS011;66403;50.832;10.950;2023-04-28T05:46:29;11.10;;;5.45;;
76801;SDS011;66403;50.832;10.950;2023-04-28T05:51:31;7.18;;;5.03;;
76801;SDS011;66403;50.832;10.950;2023-04-28T05:56:32;9.05;;;4.90;;
76801;SDS011;66403;50.832;10.950;2023-04-28T06:01:34;9.73;;;5.18;;
76801;SDS011;66403;50.832;10.950;2023-04-28T06:06:35;11.75;;;6.55;;
76801;SDS011;66403;50.832;10.950;2023-04-28T06:11:36;7.53;;;5.45;;
76801;SDS011;66403;50.832;10.950;2023-04-28T06:16:37;9.05;;;5.88;;
76801;SDS011;66403;50.832;10.950;2023-04-28T06:21:38;8.63;;;6.10;;
76801;SDS011;66403;50.832;10.950;2023-04-28T06:26:38;8.02;;;6.03;;
76801;SDS011;66403;50.832;10.950;2023-04-28T06:31:42;9.05;;;5.88;;
76801;SDS011;66403;50.832;10.950;2023-04-28T06:36:43;9.25;;;5.40;;
76801;SDS011;66403;50.832;10.950;2023-04-28T06:41:44;9.45;;;6.50;;
76801;SDS011;66403;50.832;10.950;2023-04-28T06:46:45;7.68;;;5.95;;
76801;SDS011;66403;50.832;10.950;2023-04-28T06:51:45;12.25;;;6.55;;
76801;SDS011;66403;50.832;10.950;2023-04-28T06:56:46;9.82;;;6.38;;
76801;SDS011;66403;50.832;10.950;2023-04-28T07:01:46;8.05;;;5.45;;
76801;SDS011;66403;50.832;10.950;2023-04-28T07:06:47;9.18;;;6.10;;
76801;SDS011;66403;50.832;10.950;2023-04-28T07:11:47;9.98;;;6.95;;
76801;SDS011;66403;50.832;10.950;2023-04-28T07:16:48;11.13;;;6.47;;
76801;SDS011;66403;50.832;10.950;2023-04-28T07:21:48;12.30;;;7.45;;
76801;SDS011;66403;50.832;10.950;2023-04-28T07:26:49;12.80;;;6.13;;
76801;SDS011;66403;50.832;10.950;2023-04-28T07:31:49;11.50;;;6.60;;
76801;SDS011;66403;50.832;10.950;2023-04-28T07:36:50;11.50;;;6.53;;
76801;SDS011;66403;50.832;10.950;2023-04-28T07:41:50;8.07;;;5.82;;
76801;SDS011;66403;50.832;10.950;2023-04-28T07:46:51;10.52;;;6.57;;
76801;SDS011;66403;50.832;10.950;2023-04-28T07:51:53;7.55;;;5.55;;
76801;SDS011;66403;50.832;10.950;2023-04-28T07:56:55;9.75;;;6.63;;
76801;SDS011;66403;50.832;10.950;2023-04-28T08:01:57;8.88;;;6.38;;
76801;SDS011;66403;50.832;10.950;2023-04-28T08:06:57;10.75;;;6.15;;
76801;SDS011;66403;50.832;10.950;2023-04-28T08:11:58;9.35;;;6.45;;
76801;SDS011;66403;50.832;10.950;2023-04-28T08:16:59;11.10;;;7.03;;
76801;SDS011;66403;50.832;10.950;2023-04-28T08:22:00;9.70;;;6.68;;
76801;SDS011;66403;50.832;10.950;2023-04-28T08:27:04;11.68;;;6.82;;
76801;SDS011;66403;50.832;10.950;2023-04-28T08:32:05;15.20;;;7.68;;
76801;SDS011;66403;50.832;10.950;2023-04-28T08:37:05;7.95;;;6.13;;
76801;SDS011;66403;50.832;10.950;2023-04-28T08:42:06;13.32;;;7.95;;
76801;SDS011;66403;50.832;10.950;2023-04-28T08:47:11;9.68;;;7.80;;
76801;SDS011;66403;50.832;10.950;2023-04-28T08:52:15;9.18;;;5.85;;
76801;SDS011;66403;50.832;10.950;2023-04-28T08:57:16;8.30;;;5.80;;
76801;SDS011;66403;50.832;10.950;2023-04-28T09:02:17;7.35;;;5.97;;
76801;SDS011;66403;50.832;10.950;2023-04-28T09:07:18;6.35;;;4.68;;
76801;SDS011;66403;50.832;10.950;2023-04-28T09:12:19;8.23;;;5.55;;
76801;SDS011;66403;50.832;10.950;2023-04-28T09:17:20;5.85;;;5.25;;
76801;SDS011;66403;50.832;10.950;2023-04-28T09:22:25;7.13;;;5.93;;
76801;SDS011;66403;50.832;10.950;2023-04-28T09:27:27;6.88;;;5.68;;
76801;SDS011;66403;50.832;10.950;2023-04-28T09:32:27;6.40;;;5.47;;
76801;SDS011;66403;50.832;10.950;2023-04-28T09:37:28;17.35;;;6.35;;
76801;SDS011;66403;50.832;10.950;2023-04-28T09:42:32;9.20;;;6.13;;
76801;SDS011;66403;50.832;10.950;2023-04-28T09:47:34;11.80;;;7.20;;
76801;SDS011;66403;50.832;10.950;2023-04-28T09:52:36;12.57;;;5.65;;
76801;SDS011;66403;50.832;10.950;2023-04-28T09:57:37;7.38;;;5.82;;
76801;SDS011;66403;50.832;10.950;2023-04-28T10:02:38;7.72;;;5.70;;
76801;SDS011;66403;50.832;10.950;2023-04-28T10:07:39;7.38;;;5.72;;
76801;SDS011;66403;50.832;10.950;2023-04-28T10:12:40;10.80;;;6.82;;
76801;SDS011;66403;50.832;10.950;2023-04-28T10:17:40;9.45;;;4.97;;
76801;SDS011;66403;50.832;10.950;2023-04-28T10:22:50;8.40;;;5.45;;
76801;SDS011;66403;50.832;10.950;2023-04-28T10:38:19;8.65;;;5.93;;
76801;SDS011;66403;50.832;10.950;2023-04-28T10:58:44;5.13;;;3.97;;
76801;SDS011;66403;50.832;10.950;2023-04-28T11:08:45;5.95;;;4.38;;
76801;SDS011;66403;50.832;10.950;2023-04-28T11:13:46;6.78;;;4.72;;
76801;SDS011;66403;50.832;10.950;2023-04-28T11:18:57;4.68;;;4.10;;
76801;SDS011;66403;50.832;10.950;2023-04-28T11:24:07;5.80;;;4.10;;
76801;SDS011;66403;50.832;10.950;2023-04-28T11:29:09;8.73;;;3.83;;
76801;SDS011;66403;50.832;10.950;2023-04-28T11:34:10;4.50;;;3.95;;
76801;SDS011;66403;50.832;10.950;2023-04-28T11:39:13;5.80;;;3.97;;
76801;SDS011;66403;50.832;10.950;2023-04-28T11:44:15;6.53;;;3.97;;
76801;SDS011;66403;50.832;10.950;2023-04-28T11:49:19;6.95;;;4.35;;
76801;SDS011;66403;50.832;10.950;2023-04-28T11:54:21;5.07;;;3.80;;
76801;SDS011;66403;50.832;10.950;2023-04-28T11:59:26;6.90;;;3.40;;
76801;SDS011;66403;50.832;10.950;2023-04-28T12:04:32;6.22;;;3.55;;
76801;SDS011;66403;50.832;10.950;2023-04-28T12:09:37;3.33;;;2.85;;
76801;SDS011;66403;50.832;10.950;2023-04-28T12:20:01;2.92;;;1.77;;
76801;SDS011;66403;50.832;10.950;2023-04-28T12:25:04;3.75;;;1.90;;
76801;SDS011;66403;50.832;10.950;2023-04-28T12:35:21;4.13;;;1.52;;
76801;SDS011;66403;50.832;10.950;2023-04-28T12:40:22;1.80;;;1.60;;
76801;SDS011;66403;50.832;10.950;2023-04-28T12:45:23;1.88;;;1.33;;
76801;SDS011;66403;50.832;10.950;2023-04-28T12:50:23;2.10;;;1.60;;
76801;SDS011;66403;50.832;10.950;2023-04-28T12:55:26;2.03;;;1.50;;
76801;SDS011;66403;50.832;10.950;2023-04-28T13:00:26;1.70;;;1.60;;
76801;SDS011;66403;50.832;10.950;2023-04-28T13:05:26;1.48;;;1.27;;
76801;SDS011;66403;50.832;10.950;2023-04-28T13:10:27;2.40;;;1.75;;
76801;SDS011;66403;50.832;10.950;2023-04-28T13:15:28;1.20;;;1.10;;
76801;SDS011;66403;50.832;10.950;2023-04-28T13:20:30;3.97;;;1.75;;
76801;SDS011;66403;50.832;10.950;2023-04-28T13:25:30;4.60;;;3.15;;
76801;SDS011;66403;50.832;10.950;2023-04-28T13:30:30;1.30;;;1.13;;
76801;SDS011;66403;50.832;10.950;2023-04-28T13:35:31;1.37;;;1.07;;
76801;SDS011;66403;50.832;10.950;2023-04-28T13:40:33;3.00;;;1.40;;
76801;SDS011;66403;50.832;10.950;2023-04-28T13:45:34;1.42;;;1.17;;
76801;SDS011;66403;50.832;10.950;2023-04-28T13:50:35;1.33;;;1.23;;
76801;SDS011;66403;50.832;10.950;2023-04-28T13:55:35;1.50;;;1.20;;
76801;SDS011;66403;50.832;10.950;2023-04-28T14:00:36;1.92;;;1.65;;
76801;SDS011;66403;50.832;10.950;2023-04-28T14:05:36;1.50;;;1.40;;
76801;SDS011;66403;50.832;10.950;2023-04-28T14:10:37;2.35;;;1.30;;
76801;SDS011;66403;50.832;10.950;2023-04-28T14:15:37;1.50;;;1.40;;
76801;SDS011;66403;50.832;10.950;2023-04-28T14:20:39;1.73;;;1.50;;
76801;SDS011;66403;50.832;10.950;2023-04-28T14:25:40;2.03;;;1.63;;
76801;SDS011;66403;50.832;10.950;2023-04-28T14:30:40;1.65;;;1.55;;
76801;SDS011;66403;50.832;10.950;2023-04-28T14:35:41;2.35;;;1.77;;
76801;SDS011;66403;50.832;10.950;2023-04-28T14:40:41;2.87;;;1.80;;
76801;SDS011;66403;50.832;10.950;2023-04-28T14:45:42;2.28;;;2.08;;
76801;SDS011;66403;50.832;10.950;2023-04-28T14:50:49;1.98;;;1.80;;
76801;SDS011;66403;50.832;10.950;2023-04-28T14:55:50;2.30;;;2.00;;
76801;SDS011;66403;50.832;10.950;2023-04-28T15:00:56;2.45;;;1.85;;
76801;SDS011;66403;50.832;10.950;2023-04-28T15:05:58;4.53;;;3.42;;
76801;SDS011;66403;50.832;10.950;2023-04-28T15:11:02;3.63;;;2.10;;
76801;SDS011;66403;50.832;10.950;2023-04-28T15:16:02;3.33;;;2.22;;
76801;SDS011;66403;50.832;10.950;2023-04-28T15:21:03;2.47;;;2.08;;
76801;SDS011;66403;50.832;10.950;2023-04-28T15:26:05;2.07;;;1.77;;
76801;SDS011;66403;50.832;10.950;2023-04-28T15:31:07;2.28;;;1.73;;
76801;SDS011;66403;50.832;10.950;2023-04-28T15:36:28;2.28;;;2.08;;
76801;SDS011;66403;50.832;10.950;2023-04-28T15:41:37;3.05;;;2.03;;
76801;SDS011;66403;50.832;10.950;2023-04-28T15:46:58;2.72;;;2.25;;
76801;SDS011;66403;50.832;10.950;2023-04-28T15:51:59;2.03;;;1.83;;
76801;SDS011;66403;50.832;10.950;2023-04-28T15:56:59;7.30;;;4.60;;
76801;SDS011;66403;50.832;10.950;2023-04-28T16:02:02;2.63;;;1.65;;
76801;SDS011;66403;50.832;10.950;2023-04-28T16:07:03;1.73;;;1.50;;
76801;SDS011;66403;50.832;10.950;2023-04-28T16:12:43;1.90;;;1.70;;
76801;SDS011;66403;50.832;10.950;2023-04-28T16:17:43;2.10;;;1.70;;
76801;SDS011;66403;50.832;10.950;2023-04-28T16:22:44;2.60;;;1.70;;
76801;SDS011;66403;50.832;10.950;2023-04-28T16:27:48;2.55;;;2.13;;
76801;SDS011;66403;50.832;10.950;2023-04-28T16:32:54;3.25;;;1.88;;
76801;SDS011;66403;50.832;10.950;2023-04-28T16:38:11;2.30;;;1.92;;
76801;SDS011;66403;50.832;10.950;2023-04-28T16:43:12;2.13;;;1.65;;
76801;SDS011;66403;50.832;10.950;2023-04-28T16:48:15;2.63;;;2.42;;
76801;SDS011;66403;50.832;10.950;2023-04-28T16:53:22;2.05;;;1.73;;
76801;SDS011;66403;50.832;10.950;2023-04-28T16:58:22;3.20;;;2.22;;
76801;SDS011;66403;50.832;10.950;2023-04-28T17:03:23;2.33;;;2.05;;
76801;SDS011;66403;50.832;10.950;2023-04-28T17:08:26;2.07;;;1.77;;
76801;SDS011;66403;50.832;10.950;2023-04-28T17:13:32;3.28;;;2.40;;
76801;SDS011;66403;50.832;10.950;2023-04-28T17:18:33;2.50;;;2.17;;
76801;SDS011;66403;50.832;10.950;2023-04-28T17:23:33;4.05;;;2.78;;
76801;SDS011;66403;50.832;10.950;2023-04-28T17:28:34;3.42;;;2.80;;
76801;SDS011;66403;50.832;10.950;2023-04-28T17:33:35;2.73;;;2.30;;
76801;SDS011;66403;50.832;10.950;2023-04-28T17:38:38;2.85;;;2.22;;
76801;SDS011;66403;50.832;10.950;2023-04-28T17:43:43;5.45;;;4.05;;
76801;SDS011;66403;50.832;10.950;2023-04-28T17:48:45;4.85;;;2.72;;
76801;SDS011;66403;50.832;10.950;2023-04-28T17:53:45;3.28;;;2.60;;
76801;SDS011;66403;50.832;10.950;2023-04-28T17:58:47;4.07;;;3.13;;
76801;SDS011;66403;50.832;10.950;2023-04-28T18:03:56;4.13;;;2.88;;
76801;SDS011;66403;50.832;10.950;2023-04-28T18:09:00;5.05;;;3.67;;
76801;SDS011;66403;50.832;10.950;2023-04-28T18:14:01;4.30;;;3.15;;
76801;SDS011;66403;50.832;10.950;2023-04-28T18:19:04;5.63;;;2.97;;
76801;SDS011;66403;50.832;10.950;2023-04-28T18:24:15;6.00;;;3.88;;
76801;SDS011;66403;50.832;10.950;2023-04-28T18:29:16;5.00;;;3.17;;
76801;SDS011;66403;50.832;10.950;2023-04-28T18:34:17;5.32;;;3.40;;
76801;SDS011;66403;50.832;10.950;2023-04-28T18:39:18;4.95;;;4.10;;
76801;SDS011;66403;50.832;10.950;2023-04-28T18:44:19;6.25;;;4.30;;
76801;SDS011;66403;50.832;10.950;2023-04-28T18:49:19;6.60;;;3.75;;
76801;SDS011;66403;50.832;10.950;2023-04-28T18:54:20;4.47;;;3.40;;
76801;SDS011;66403;50.832;10.950;2023-04-28T18:59:21;5.30;;;3.35;;
76801;SDS011;66403;50.832;10.950;2023-04-28T19:04:22;5.10;;;3.60;;
76801;SDS011;66403;50.832;10.950;2023-04-28T19:09:23;4.55;;;3.90;;
76801;SDS011;66403;50.832;10.950;2023-04-28T19:14:23;5.97;;;4.07;;
76801;SDS011;66403;50.832;10.950;2023-04-28T19:19:23;6.32;;;4.10;;
76801;SDS011;66403;50.832;10.950;2023-04-28T19:24:24;49.90;;;20.98;;
76801;SDS011;66403;50.832;10.950;2023-04-28T19:29:24;5.63;;;4.63;;
76801;SDS011;66403;50.832;10.950;2023-04-28T19:34:25;4.55;;;3.47;;
76801;SDS011;66403;50.832;10.950;2023-04-28T19:39:26;7.60;;;4.28;;
76801;SDS011;66403;50.832;10.950;2023-04-28T19:44:27;5.03;;;3.30;;
76801;SDS011;66403;50.832;10.950;2023-04-28T19:49:27;5.88;;;4.22;;
76801;SDS011;66403;50.832;10.950;2023-04-28T19:54:31;5.43;;;4.18;;
76801;SDS011;66403;50.832;10.950;2023-04-28T19:59:37;7.25;;;3.63;;
76801;SDS011;66403;50.832;10.950;2023-04-28T20:05:18;8.35;;;5.13;;
76801;SDS011;66403;50.832;10.950;2023-04-28T20:10:19;6.65;;;4.05;;
76801;SDS011;66403;50.832;10.950;2023-04-28T20:15:33;5.88;;;3.90;;
76801;SDS011;66403;50.832;10.950;2023-04-28T20:20:39;4.80;;;3.80;;
76801;SDS011;66403;50.832;10.950;2023-04-28T20:25:44;6.10;;;4.03;;
76801;SDS011;66403;50.832;10.950;2023-04-28T20:30:46;5.53;;;3.97;;
76801;SDS011;66403;50.832;10.950;2023-04-28T20:35:46;3.97;;;3.42;;
76801;SDS011;66403;50.832;10.950;2023-04-28T20:40:46;4.32;;;3.55;;
76801;SDS011;66403;50.832;10.950;2023-04-28T20:45:47;6.55;;;3.55;;
76801;SDS011;66403;50.832;10.950;2023-04-28T20:50:48;5.47;;;4.43;;
76801;SDS011;66403;50.832;10.950;2023-04-28T20:55:52;6.65;;;4.60;;
76801;SDS011;66403;50.832;10.950;2023-04-28T21:00:52;5.72;;;4.50;;
76801;SDS011;66403;50.832;10.950;2023-04-28T21:05:53;5.85;;;3.78;;
76801;SDS011;66403;50.832;10.950;2023-04-28T21:10:53;5.45;;;3.80;;
76801;SDS011;66403;50.832;10.950;2023-04-28T21:15:54;5.65;;;3.80;;
76801;SDS011;66403;50.832;10.950;2023-04-28T21:20:55;5.85;;;4.28;;
76801;SDS011;66403;50.832;10.950;2023-04-28T21:25:55;5.78;;;4.18;;
76801;SDS011;66403;50.832;10.950;2023-04-28T21:30:56;5.65;;;3.75;;
76801;SDS011;66403;50.832;10.950;2023-04-28T21:35:57;5.60;;;3.92;;
76801;SDS011;66403;50.832;10.950;2023-04-28T21:40:57;7.50;;;4.88;;
76801;SDS011;66403;50.832;10.950;2023-04-28T21:45:58;6.00;;;3.92;;
76801;SDS011;66403;50.832;10.950;2023-04-28T21:50:58;6.90;;;4.40;;
76801;SDS011;66403;50.832;10.950;2023-04-28T21:55:59;7.35;;;4.88;;
76801;SDS011;66403;50.832;10.950;2023-04-28T22:00:59;9.05;;;4.43;;
76801;SDS011;66403;50.832;10.950;2023-04-28T22:06:00;9.05;;;5.15;;
76801;SDS011;66403;50.832;10.950;2023-04-28T22:11:01;7.10;;;4.57;;
76801;SDS011;66403;50.832;10.950;2023-04-28T22:16:01;7.25;;;4.15;;
76801;SDS011;66403;50.832;10.950;2023-04-28T22:21:02;5.72;;;4.30;;
76801;SDS011;66403;50.832;10.950;2023-04-28T22:26:03;7.70;;;4.75;;
76801;SDS011;66403;50.832;10.950;2023-04-28T22:31:03;6.90;;;5.05;;
76801;SDS011;66403;50.832;10.950;2023-04-28T22:36:04;7.20;;;4.90;;
76801;SDS011;66403;50.832;10.950;2023-04-28T22:41:04;6.18;;;4.18;;
76801;SDS011;66403;50.832;10.950;2023-04-28T22:46:05;7.60;;;4.72;;
76801;SDS011;66403;50.832;10.950;2023-04-28T22:51:05;7.28;;;4.38;;
76801;SDS011;66403;50.832;10.950;2023-04-28T22:56:06;7.68;;;5.35;;
76801;SDS011;66403;50.832;10.950;2023-04-28T23:01:07;11.13;;;4.82;;
76801;SDS011;66403;50.832;10.950;2023-04-28T23:06:07;6.22;;;4.60;;
76801;SDS011;66403;50.832;10.950;2023-04-28T23:11:08;5.50;;;4.30;;
76801;SDS011;66403;50.832;10.950;2023-04-28T23:16:08;5.63;;;4.07;;
76801;SDS011;66403;50.832;10.950;2023-04-28T23:21:09;6.35;;;4.07;;
76801;SDS011;66403;50.832;10.950;2023-04-28T23:26:10;5.43;;;3.20;;
76801;SDS011;66403;50.832;10.950;2023-04-28T23:31:11;8.63;;;4.75;;
76801;SDS011;66403;50.832;10.950;2023-04-28T23:36:12;7.05;;;3.60;;
76801;SDS011;66403;50.832;10.950;2023-04-28T23:41:12;7.30;;;4.85;;
76801;SDS011;66403;50.832;10.950;2023-04-28T23:46:13;6.63;;;4.22;;
76801;SDS011;66403;50.832;10.950;2023-04-28T23:51:13;6.78;;;4.72;;
76801;SDS011;66403;50.832;10.950;2023-04-28T23:56:14;6.35;;;4.40;;
